sensor_id;sensor_type;location;lat;lon;timestamp;temperature;humidity
11009;DHT22;5557;51.670;7.788;2022-12-20T00:01:32;10.80;66.20
11009;DHT22;5557;51.670;7.788;2022-12-20T00:04:01;10.90;64.20
11009;DHT22;5557;51.670;7.788;2022-12-20T00:06:29;10.90;63.20
11009;DHT22;5557;51.670;7.788;2022-12-20T00:09:01;10.90;62.60
11009;DHT22;5557;51.670;7.788;2022-12-20T00:11:28;11.00;61.60
11009;DHT22;5557;51.670;7.788;2022-12-20T00:13:56;11.00;60.50
11009;DHT22;5557;51.670;7.788;2022-12-20T00:16:26;11.10;59.20
11009;DHT22;5557;51.670;7.788;2022-12-20T00:18:56;11.20;58.20
11009;DHT22;5557;51.670;7.788;2022-12-20T00:21:24;11.20;57.40
11009;DHT22;5557;51.670;7.788;2022-12-20T00:23:52;11.20;58.50
11009;DHT22;5557;51.670;7.788;2022-12-20T00:26:21;11.20;59.80
11009;DHT22;5557;51.670;7.788;2022-12-20T00:28:49;11.20;60.10
11009;DHT22;5557;51.670;7.788;2022-12-20T00:31:18;11.20;60.00
11009;DHT22;5557;51.670;7.788;2022-12-20T00:33:47;11.30;59.10
11009;DHT22;5557;51.670;7.788;2022-12-20T00:36:15;11.30;57.20
11009;DHT22;5557;51.670;7.788;2022-12-20T00:38:47;11.30;58.20
11009;DHT22;5557;51.670;7.788;2022-12-20T00:41:20;11.20;58.30
11009;DHT22;5557;51.670;7.788;2022-12-20T00:43:48;11.30;57.60
11009;DHT22;5557;51.670;7.788;2022-12-20T00:46:17;11.20;58.70
11009;DHT22;5557;51.670;7.788;2022-12-20T00:48:45;11.20;57.50
11009;DHT22;5557;51.670;7.788;2022-12-20T00:51:15;11.30;57.20
11009;DHT22;5557;51.670;7.788;2022-12-20T00:53:42;11.30;56.30
11009;DHT22;5557;51.670;7.788;2022-12-20T00:56:10;11.30;54.60
11009;DHT22;5557;51.670;7.788;2022-12-20T00:58:40;11.40;53.90
11009;DHT22;5557;51.670;7.788;2022-12-20T01:01:23;11.40;52.90
11009;DHT22;5557;51.670;7.788;2022-12-20T01:03:51;11.40;51.80
11009;DHT22;5557;51.670;7.788;2022-12-20T01:06:19;11.40;52.40
11009;DHT22;5557;51.670;7.788;2022-12-20T01:08:46;11.40;51.30
11009;DHT22;5557;51.670;7.788;2022-12-20T01:11:20;11.40;50.40
11009;DHT22;5557;51.670;7.788;2022-12-20T01:13:49;11.40;50.30
11009;DHT22;5557;51.670;7.788;2022-12-20T01:16:22;11.50;49.90
11009;DHT22;5557;51.670;7.788;2022-12-20T01:18:50;11.50;49.30
11009;DHT22;5557;51.670;7.788;2022-12-20T01:21:19;11.50;47.40
11009;DHT22;5557;51.670;7.788;2022-12-20T01:23:47;11.60;47.50
11009;DHT22;5557;51.670;7.788;2022-12-20T01:26:17;11.60;47.20
11009;DHT22;5557;51.670;7.788;2022-12-20T01:28:45;11.60;46.20
11009;DHT22;5557;51.670;7.788;2022-12-20T01:31:15;11.60;46.60
11009;DHT22;5557;51.670;7.788;2022-12-20T01:33:44;11.60;46.30
11009;DHT22;5557;51.670;7.788;2022-12-20T01:36:17;11.50;47.40
11009;DHT22;5557;51.670;7.788;2022-12-20T01:38:44;11.50;47.40
11009;DHT22;5557;51.670;7.788;2022-12-20T01:41:17;11.40;48.10
11009;DHT22;5557;51.670;7.788;2022-12-20T01:44:05;11.40;48.50
11009;DHT22;5557;51.670;7.788;2022-12-20T01:46:34;11.50;47.10
11009;DHT22;5557;51.670;7.788;2022-12-20T01:51:44;11.50;47.40
11009;DHT22;5557;51.670;7.788;2022-12-20T01:54:18;11.50;46.40
11009;DHT22;5557;51.670;7.788;2022-12-20T01:56:51;11.50;45.00
11009;DHT22;5557;51.670;7.788;2022-12-20T01:59:19;11.60;44.00
11009;DHT22;5557;51.670;7.788;2022-12-20T02:01:46;11.60;43.50
11009;DHT22;5557;51.670;7.788;2022-12-20T02:04:13;11.60;44.60
11009;DHT22;5557;51.670;7.788;2022-12-20T02:06:40;11.60;45.10
11009;DHT22;5557;51.670;7.788;2022-12-20T02:09:07;11.60;45.00
11009;DHT22;5557;51.670;7.788;2022-12-20T02:14:35;11.60;45.20
11009;DHT22;5557;51.670;7.788;2022-12-20T02:17:12;11.50;44.90
11009;DHT22;5557;51.670;7.788;2022-12-20T02:31:57;11.60;43.80
11009;DHT22;5557;51.670;7.788;2022-12-20T02:34:27;11.60;43.50
11009;DHT22;5557;51.670;7.788;2022-12-20T02:36:58;11.70;42.90
11009;DHT22;5557;51.670;7.788;2022-12-20T02:39:26;11.70;42.90
11009;DHT22;5557;51.670;7.788;2022-12-20T02:41:57;11.70;42.50
11009;DHT22;5557;51.670;7.788;2022-12-20T02:44:27;11.70;42.80
11009;DHT22;5557;51.670;7.788;2022-12-20T02:47:20;11.70;43.90
11009;DHT22;5557;51.670;7.788;2022-12-20T02:49:49;11.60;45.40
11009;DHT22;5557;51.670;7.788;2022-12-20T02:52:19;11.60;45.10
11009;DHT22;5557;51.670;7.788;2022-12-20T02:54:48;11.60;46.20
11009;DHT22;5557;51.670;7.788;2022-12-20T02:57:24;11.50;47.50
11009;DHT22;5557;51.670;7.788;2022-12-20T03:00:02;11.40;48.60
11009;DHT22;5557;51.670;7.788;2022-12-20T03:02:31;11.50;48.20
11009;DHT22;5557;51.670;7.788;2022-12-20T03:05:21;11.50;47.70
11009;DHT22;5557;51.670;7.788;2022-12-20T03:07:49;11.40;47.30
11009;DHT22;5557;51.670;7.788;2022-12-20T03:10:16;11.40;48.50
11009;DHT22;5557;51.670;7.788;2022-12-20T03:12:43;11.30;49.10
11009;DHT22;5557;51.670;7.788;2022-12-20T03:15:11;11.30;49.50
11009;DHT22;5557;51.670;7.788;2022-12-20T03:17:38;11.30;48.80
11009;DHT22;5557;51.670;7.788;2022-12-20T03:20:05;11.40;48.00
11009;DHT22;5557;51.670;7.788;2022-12-20T03:22:33;11.40;48.20
11009;DHT22;5557;51.670;7.788;2022-12-20T03:25:01;11.40;47.30
11009;DHT22;5557;51.670;7.788;2022-12-20T03:27:27;11.40;47.30
11009;DHT22;5557;51.670;7.788;2022-12-20T03:29:55;11.50;47.40
11009;DHT22;5557;51.670;7.788;2022-12-20T03:32:22;11.40;48.80
11009;DHT22;5557;51.670;7.788;2022-12-20T03:34:49;11.40;49.60
11009;DHT22;5557;51.670;7.788;2022-12-20T03:37:16;11.40;49.80
11009;DHT22;5557;51.670;7.788;2022-12-20T03:39:43;11.40;49.70
11009;DHT22;5557;51.670;7.788;2022-12-20T03:42:10;11.40;49.70
11009;DHT22;5557;51.670;7.788;2022-12-20T03:44:37;11.40;50.60
11009;DHT22;5557;51.670;7.788;2022-12-20T03:47:04;11.40;53.20
11009;DHT22;5557;51.670;7.788;2022-12-20T03:49:31;11.30;56.30
11009;DHT22;5557;51.670;7.788;2022-12-20T03:51:58;11.30;60.40
11009;DHT22;5557;51.670;7.788;2022-12-20T03:54:25;11.30;61.10
11009;DHT22;5557;51.670;7.788;2022-12-20T03:56:52;11.30;62.20
11009;DHT22;5557;51.670;7.788;2022-12-20T03:59:19;11.30;62.10
11009;DHT22;5557;51.670;7.788;2022-12-20T04:01:46;11.20;62.70
11009;DHT22;5557;51.670;7.788;2022-12-20T04:04:14;11.20;63.10
11009;DHT22;5557;51.670;7.788;2022-12-20T04:06:41;11.20;62.90
11009;DHT22;5557;51.670;7.788;2022-12-20T04:09:08;11.20;64.00
11009;DHT22;5557;51.670;7.788;2022-12-20T04:11:35;11.20;66.90
11009;DHT22;5557;51.670;7.788;2022-12-20T04:14:02;11.10;71.10
11009;DHT22;5557;51.670;7.788;2022-12-20T04:16:30;11.00;74.20
11009;DHT22;5557;51.670;7.788;2022-12-20T04:18:57;10.90;77.20
11009;DHT22;5557;51.670;7.788;2022-12-20T04:21:29;10.90;79.40
11009;DHT22;5557;51.670;7.788;2022-12-20T04:23:57;10.80;80.80
11009;DHT22;5557;51.670;7.788;2022-12-20T04:26:27;10.80;83.20
11009;DHT22;5557;51.670;7.788;2022-12-20T04:28:54;10.70;84.70
11009;DHT22;5557;51.670;7.788;2022-12-20T04:31:21;10.70;86.70
11009;DHT22;5557;51.670;7.788;2022-12-20T04:33:50;10.60;89.10
11009;DHT22;5557;51.670;7.788;2022-12-20T04:36:17;10.50;90.60
11009;DHT22;5557;51.670;7.788;2022-12-20T04:38:45;10.50;91.40
11009;DHT22;5557;51.670;7.788;2022-12-20T04:41:12;10.50;92.10
11009;DHT22;5557;51.670;7.788;2022-12-20T04:44:02;10.50;91.90
11009;DHT22;5557;51.670;7.788;2022-12-20T04:46:29;10.50;92.00
11009;DHT22;5557;51.670;7.788;2022-12-20T04:48:57;10.50;92.60
11009;DHT22;5557;51.670;7.788;2022-12-20T04:51:27;10.40;92.30
11009;DHT22;5557;51.670;7.788;2022-12-20T04:53:54;10.50;92.60
11009;DHT22;5557;51.670;7.788;2022-12-20T04:56:27;10.50;92.80
11009;DHT22;5557;51.670;7.788;2022-12-20T04:58:56;10.50;92.40
11009;DHT22;5557;51.670;7.788;2022-12-20T05:01:23;10.60;91.80
11009;DHT22;5557;51.670;7.788;2022-12-20T05:03:50;10.60;91.20
11009;DHT22;5557;51.670;7.788;2022-12-20T05:06:18;10.60;91.10
11009;DHT22;5557;51.670;7.788;2022-12-20T05:08:45;10.60;91.60
11009;DHT22;5557;51.670;7.788;2022-12-20T05:11:12;10.60;92.10
11009;DHT22;5557;51.670;7.788;2022-12-20T05:13:40;10.60;92.40
11009;DHT22;5557;51.670;7.788;2022-12-20T05:16:07;10.60;92.30
11009;DHT22;5557;51.670;7.788;2022-12-20T05:18:34;10.60;92.60
11009;DHT22;5557;51.670;7.788;2022-12-20T05:21:03;10.50;93.20
11009;DHT22;5557;51.670;7.788;2022-12-20T05:23:49;10.50;93.40
11009;DHT22;5557;51.670;7.788;2022-12-20T05:26:36;10.60;93.10
11009;DHT22;5557;51.670;7.788;2022-12-20T05:29:04;10.60;92.90
11009;DHT22;5557;51.670;7.788;2022-12-20T05:31:31;10.60;93.20
11009;DHT22;5557;51.670;7.788;2022-12-20T05:33:59;10.60;93.50
11009;DHT22;5557;51.670;7.788;2022-12-20T05:36:26;10.60;93.90
11009;DHT22;5557;51.670;7.788;2022-12-20T05:38:53;10.60;94.50
11009;DHT22;5557;51.670;7.788;2022-12-20T05:41:29;10.50;95.80
11009;DHT22;5557;51.670;7.788;2022-12-20T05:43:56;10.60;95.90
11009;DHT22;5557;51.670;7.788;2022-12-20T05:46:23;10.60;96.10
11009;DHT22;5557;51.670;7.788;2022-12-20T05:48:50;10.50;96.60
11009;DHT22;5557;51.670;7.788;2022-12-20T05:51:16;10.50;97.10
11009;DHT22;5557;51.670;7.788;2022-12-20T05:53:43;10.50;97.50
11009;DHT22;5557;51.670;7.788;2022-12-20T05:56:10;10.50;97.80
11009;DHT22;5557;51.670;7.788;2022-12-20T05:58:38;10.50;98.10
11009;DHT22;5557;51.670;7.788;2022-12-20T06:01:06;10.50;98.30
11009;DHT22;5557;51.670;7.788;2022-12-20T06:03:34;10.40;98.60
11009;DHT22;5557;51.670;7.788;2022-12-20T06:06:02;10.40;98.70
11009;DHT22;5557;51.670;7.788;2022-12-20T06:08:37;10.40;98.70
11009;DHT22;5557;51.670;7.788;2022-12-20T06:11:04;10.40;98.90
11009;DHT22;5557;51.670;7.788;2022-12-20T06:13:32;10.40;99.40
11009;DHT22;5557;51.670;7.788;2022-12-20T06:15:59;10.30;99.30
11009;DHT22;5557;51.670;7.788;2022-12-20T06:18:27;10.30;99.30
11009;DHT22;5557;51.670;7.788;2022-12-20T06:20:54;10.40;98.90
11009;DHT22;5557;51.670;7.788;2022-12-20T06:23:21;10.30;98.50
11009;DHT22;5557;51.670;7.788;2022-12-20T06:25:50;10.40;98.00
11009;DHT22;5557;51.670;7.788;2022-12-20T06:28:17;10.40;97.30
11009;DHT22;5557;51.670;7.788;2022-12-20T06:30:55;10.50;96.50
11009;DHT22;5557;51.670;7.788;2022-12-20T06:33:24;10.50;95.90
11009;DHT22;5557;51.670;7.788;2022-12-20T06:35:51;10.50;95.90
11009;DHT22;5557;51.670;7.788;2022-12-20T06:38:18;10.50;95.60
11009;DHT22;5557;51.670;7.788;2022-12-20T06:40:45;10.40;95.70
11009;DHT22;5557;51.670;7.788;2022-12-20T06:43:12;10.40;95.50
11009;DHT22;5557;51.670;7.788;2022-12-20T06:45:39;10.50;95.20
11009;DHT22;5557;51.670;7.788;2022-12-20T06:48:08;10.50;94.70
11009;DHT22;5557;51.670;7.788;2022-12-20T06:50:37;10.50;94.20
11009;DHT22;5557;51.670;7.788;2022-12-20T06:53:05;10.50;94.00
11009;DHT22;5557;51.670;7.788;2022-12-20T06:55:32;10.50;93.90
11009;DHT22;5557;51.670;7.788;2022-12-20T06:58:00;10.50;93.50
11009;DHT22;5557;51.670;7.788;2022-12-20T07:00:27;10.50;92.90
11009;DHT22;5557;51.670;7.788;2022-12-20T07:02:54;10.50;92.30
11009;DHT22;5557;51.670;7.788;2022-12-20T07:05:21;10.60;91.60
11009;DHT22;5557;51.670;7.788;2022-12-20T07:07:48;10.60;90.60
11009;DHT22;5557;51.670;7.788;2022-12-20T07:10:15;10.70;89.90
11009;DHT22;5557;51.670;7.788;2022-12-20T07:12:42;10.70;88.80
11009;DHT22;5557;51.670;7.788;2022-12-20T07:15:14;10.70;88.20
11009;DHT22;5557;51.670;7.788;2022-12-20T07:17:41;10.70;87.00
11009;DHT22;5557;51.670;7.788;2022-12-20T07:20:09;10.80;85.40
11009;DHT22;5557;51.670;7.788;2022-12-20T07:22:40;10.70;85.10
11009;DHT22;5557;51.670;7.788;2022-12-20T07:25:07;10.80;84.60
11009;DHT22;5557;51.670;7.788;2022-12-20T07:27:34;10.80;84.60
11009;DHT22;5557;51.670;7.788;2022-12-20T07:30:02;10.80;82.90
11009;DHT22;5557;51.670;7.788;2022-12-20T07:32:31;10.90;80.90
11009;DHT22;5557;51.670;7.788;2022-12-20T07:34:58;10.90;80.90
11009;DHT22;5557;51.670;7.788;2022-12-20T07:37:27;10.90;80.90
11009;DHT22;5557;51.670;7.788;2022-12-20T07:39:54;10.80;80.80
11009;DHT22;5557;51.670;7.788;2022-12-20T07:42:21;10.80;80.60
11009;DHT22;5557;51.670;7.788;2022-12-20T07:44:48;10.80;80.20
11009;DHT22;5557;51.670;7.788;2022-12-20T07:47:15;10.80;80.40
11009;DHT22;5557;51.670;7.788;2022-12-20T07:49:42;10.80;80.80
11009;DHT22;5557;51.670;7.788;2022-12-20T07:52:11;10.80;80.10
11009;DHT22;5557;51.670;7.788;2022-12-20T07:54:44;10.80;77.90
11009;DHT22;5557;51.670;7.788;2022-12-20T07:57:26;10.90;77.00
11009;DHT22;5557;51.670;7.788;2022-12-20T07:59:56;11.00;75.20
11009;DHT22;5557;51.670;7.788;2022-12-20T08:02:31;11.00;73.70
11009;DHT22;5557;51.670;7.788;2022-12-20T08:05:03;11.10;72.60
11009;DHT22;5557;51.670;7.788;2022-12-20T08:07:30;11.10;71.50
11009;DHT22;5557;51.670;7.788;2022-12-20T08:09:58;11.10;70.20
11009;DHT22;5557;51.670;7.788;2022-12-20T08:12:27;11.20;69.10
11009;DHT22;5557;51.670;7.788;2022-12-20T08:14:54;11.20;69.00
11009;DHT22;5557;51.670;7.788;2022-12-20T08:17:22;11.20;69.00
11009;DHT22;5557;51.670;7.788;2022-12-20T08:19:49;11.20;66.90
11009;DHT22;5557;51.670;7.788;2022-12-20T08:22:18;11.30;65.40
11009;DHT22;5557;51.670;7.788;2022-12-20T08:24:45;11.40;64.30
11009;DHT22;5557;51.670;7.788;2022-12-20T08:27:12;11.40;62.20
11009;DHT22;5557;51.670;7.788;2022-12-20T08:29:40;11.60;60.00
11009;DHT22;5557;51.670;7.788;2022-12-20T08:32:07;11.80;55.00
11009;DHT22;5557;51.670;7.788;2022-12-20T08:34:36;12.00;47.90
11009;DHT22;5557;51.670;7.788;2022-12-20T08:37:03;11.90;49.20
11009;DHT22;5557;51.670;7.788;2022-12-20T08:39:38;11.80;51.80
11009;DHT22;5557;51.670;7.788;2022-12-20T08:42:04;11.80;54.10
11009;DHT22;5557;51.670;7.788;2022-12-20T08:44:31;11.70;53.00
11009;DHT22;5557;51.670;7.788;2022-12-20T08:46:58;11.70;54.10
11009;DHT22;5557;51.670;7.788;2022-12-20T08:49:25;11.70;52.70
11009;DHT22;5557;51.670;7.788;2022-12-20T08:51:52;11.70;53.60
11009;DHT22;5557;51.670;7.788;2022-12-20T08:54:20;11.80;52.80
11009;DHT22;5557;51.670;7.788;2022-12-20T08:56:47;11.80;53.50
11009;DHT22;5557;51.670;7.788;2022-12-20T08:59:14;11.80;53.80
11009;DHT22;5557;51.670;7.788;2022-12-20T09:01:41;11.70;56.00
11009;DHT22;5557;51.670;7.788;2022-12-20T09:04:10;11.60;55.40
11009;DHT22;5557;51.670;7.788;2022-12-20T09:06:37;11.60;54.50
11009;DHT22;5557;51.670;7.788;2022-12-20T09:09:05;11.70;52.20
11009;DHT22;5557;51.670;7.788;2022-12-20T09:11:33;11.70;52.20
11009;DHT22;5557;51.670;7.788;2022-12-20T09:14:00;11.80;51.00
11009;DHT22;5557;51.670;7.788;2022-12-20T09:16:29;11.80;50.20
11009;DHT22;5557;51.670;7.788;2022-12-20T09:18:58;11.90;48.90
11009;DHT22;5557;51.670;7.788;2022-12-20T09:21:31;12.00;45.90
11009;DHT22;5557;51.670;7.788;2022-12-20T09:23:58;12.10;44.50
11009;DHT22;5557;51.670;7.788;2022-12-20T09:26:25;12.10;44.20
11009;DHT22;5557;51.670;7.788;2022-12-20T09:28:53;12.10;44.20
11009;DHT22;5557;51.670;7.788;2022-12-20T09:31:22;12.10;43.00
11009;DHT22;5557;51.670;7.788;2022-12-20T09:33:53;12.10;45.10
11009;DHT22;5557;51.670;7.788;2022-12-20T09:36:22;12.10;44.00
11009;DHT22;5557;51.670;7.788;2022-12-20T09:38:49;12.20;43.70
11009;DHT22;5557;51.670;7.788;2022-12-20T09:41:38;12.20;44.00
11009;DHT22;5557;51.670;7.788;2022-12-20T09:44:17;12.20;42.80
11009;DHT22;5557;51.670;7.788;2022-12-20T09:47:15;12.20;43.00
11009;DHT22;5557;51.670;7.788;2022-12-20T09:49:50;12.20;41.90
11009;DHT22;5557;51.670;7.788;2022-12-20T09:58:17;12.40;39.10
11009;DHT22;5557;51.670;7.788;2022-12-20T10:00:48;12.40;38.00
11009;DHT22;5557;51.670;7.788;2022-12-20T10:03:32;12.40;38.50
11009;DHT22;5557;51.670;7.788;2022-12-20T10:06:22;12.40;39.00
11009;DHT22;5557;51.670;7.788;2022-12-20T10:09:09;12.40;38.30
11009;DHT22;5557;51.670;7.788;2022-12-20T10:12:23;12.40;38.10
11009;DHT22;5557;51.670;7.788;2022-12-20T10:15:22;12.40;38.00
11009;DHT22;5557;51.670;7.788;2022-12-20T10:21:29;12.40;37.50
11009;DHT22;5557;51.670;7.788;2022-12-20T10:24:09;12.50;37.30
11009;DHT22;5557;51.670;7.788;2022-12-20T10:26:38;12.40;39.10
11009;DHT22;5557;51.670;7.788;2022-12-20T10:29:05;12.40;39.40
11009;DHT22;5557;51.670;7.788;2022-12-20T10:31:33;12.40;40.30
11009;DHT22;5557;51.670;7.788;2022-12-20T10:34:08;12.40;38.40
11009;DHT22;5557;51.670;7.788;2022-12-20T10:36:42;12.50;38.00
11009;DHT22;5557;51.670;7.788;2022-12-20T10:39:09;12.50;39.40
11009;DHT22;5557;51.670;7.788;2022-12-20T10:41:54;12.50;39.50
11009;DHT22;5557;51.670;7.788;2022-12-20T10:44:28;12.60;40.80
11009;DHT22;5557;51.670;7.788;2022-12-20T10:46:59;12.60;35.80
11009;DHT22;5557;51.670;7.788;2022-12-20T10:49:32;12.70;36.60
11009;DHT22;5557;51.670;7.788;2022-12-20T10:52:12;12.70;34.90
11009;DHT22;5557;51.670;7.788;2022-12-20T10:54:48;12.80;33.10
11009;DHT22;5557;51.670;7.788;2022-12-20T10:57:24;12.80;32.80
11009;DHT22;5557;51.670;7.788;2022-12-20T11:00:26;12.90;33.40
11009;DHT22;5557;51.670;7.788;2022-12-20T11:06:01;12.90;33.80
11009;DHT22;5557;51.670;7.788;2022-12-20T11:08:30;12.90;31.40
11009;DHT22;5557;51.670;7.788;2022-12-20T11:11:22;12.90;31.10
11009;DHT22;5557;51.670;7.788;2022-12-20T11:13:50;12.90;29.80
11009;DHT22;5557;51.670;7.788;2022-12-20T11:16:44;12.90;31.30
11009;DHT22;5557;51.670;7.788;2022-12-20T11:19:47;12.90;28.90
11009;DHT22;5557;51.670;7.788;2022-12-20T11:22:29;13.00;28.80
11009;DHT22;5557;51.670;7.788;2022-12-20T11:28:12;13.10;29.60
11009;DHT22;5557;51.670;7.788;2022-12-20T11:31:15;13.20;27.20
11009;DHT22;5557;51.670;7.788;2022-12-20T11:37:17;13.30;26.40
11009;DHT22;5557;51.670;7.788;2022-12-20T11:40:43;13.30;27.10
11009;DHT22;5557;51.670;7.788;2022-12-20T11:43:16;13.30;27.00
11009;DHT22;5557;51.670;7.788;2022-12-20T11:52:42;13.30;26.10
11009;DHT22;5557;51.670;7.788;2022-12-20T11:55:27;13.30;26.70
11009;DHT22;5557;51.670;7.788;2022-12-20T12:00:54;13.30;24.90
11009;DHT22;5557;51.670;7.788;2022-12-20T12:03:33;13.30;27.10
11009;DHT22;5557;51.670;7.788;2022-12-20T12:06:06;13.30;25.90
11009;DHT22;5557;51.670;7.788;2022-12-20T12:08:40;13.20;26.30
11009;DHT22;5557;51.670;7.788;2022-12-20T12:11:28;13.20;28.80
11009;DHT22;5557;51.670;7.788;2022-12-20T12:17:34;13.20;27.90
11009;DHT22;5557;51.670;7.788;2022-12-20T12:20:19;13.20;27.70
11009;DHT22;5557;51.670;7.788;2022-12-20T12:22:50;13.20;27.90
11009;DHT22;5557;51.670;7.788;2022-12-20T12:25:18;13.20;27.30
11009;DHT22;5557;51.670;7.788;2022-12-20T12:27:45;13.30;28.60
11009;DHT22;5557;51.670;7.788;2022-12-20T12:30:14;13.30;27.50
11009;DHT22;5557;51.670;7.788;2022-12-20T12:32:53;13.30;26.50
11009;DHT22;5557;51.670;7.788;2022-12-20T12:35:50;13.30;25.30
11009;DHT22;5557;51.670;7.788;2022-12-20T12:44:53;13.30;25.90
11009;DHT22;5557;51.670;7.788;2022-12-20T12:47:43;13.20;25.60
11009;DHT22;5557;51.670;7.788;2022-12-20T12:50:40;13.20;24.90
11009;DHT22;5557;51.670;7.788;2022-12-20T12:53:35;13.20;25.80
11009;DHT22;5557;51.670;7.788;2022-12-20T12:56:40;13.20;26.50
11009;DHT22;5557;51.670;7.788;2022-12-20T13:02:25;13.20;27.50
11009;DHT22;5557;51.670;7.788;2022-12-20T13:07:45;13.10;30.30
11009;DHT22;5557;51.670;7.788;2022-12-20T13:10:56;13.10;30.90
11009;DHT22;5557;51.670;7.788;2022-12-20T13:13:22;13.10;32.30
11009;DHT22;5557;51.670;7.788;2022-12-20T13:15:51;13.00;34.60
11009;DHT22;5557;51.670;7.788;2022-12-20T13:18:22;13.00;34.30
11009;DHT22;5557;51.670;7.788;2022-12-20T13:21:27;13.00;34.40
11009;DHT22;5557;51.670;7.788;2022-12-20T13:27:29;13.00;33.70
11009;DHT22;5557;51.670;7.788;2022-12-20T13:33:14;13.00;38.50
11009;DHT22;5557;51.670;7.788;2022-12-20T13:39:40;12.90;38.90
11009;DHT22;5557;51.670;7.788;2022-12-20T13:41:52;12.80;40.80
11009;DHT22;5557;51.670;7.788;2022-12-20T13:44:35;12.80;43.10
11009;DHT22;5557;51.670;7.788;2022-12-20T13:49:42;12.70;44.90
11009;DHT22;5557;51.670;7.788;2022-12-20T13:54:54;12.70;44.40
11009;DHT22;5557;51.670;7.788;2022-12-20T13:57:42;12.60;45.90
11009;DHT22;5557;51.670;7.788;2022-12-20T14:02:43;12.60;49.50
11009;DHT22;5557;51.670;7.788;2022-12-20T14:05:22;12.50;51.00
11009;DHT22;5557;51.670;7.788;2022-12-20T14:08:15;12.40;58.30
11009;DHT22;5557;51.670;7.788;2022-12-20T14:10:43;12.20;77.50
11009;DHT22;5557;51.670;7.788;2022-12-20T14:13:19;11.90;90.40
11009;DHT22;5557;51.670;7.788;2022-12-20T14:15:47;11.60;94.60
11009;DHT22;5557;51.670;7.788;2022-12-20T14:18:22;11.50;96.30
11009;DHT22;5557;51.670;7.788;2022-12-20T14:20:58;11.40;96.70
11009;DHT22;5557;51.670;7.788;2022-12-20T14:23:42;11.40;96.80
11009;DHT22;5557;51.670;7.788;2022-12-20T14:26:23;11.40;96.40
11009;DHT22;5557;51.670;7.788;2022-12-20T14:28:52;11.40;97.30
11009;DHT22;5557;51.670;7.788;2022-12-20T14:31:39;11.40;98.00
11009;DHT22;5557;51.670;7.788;2022-12-20T14:37:30;11.30;99.30
11009;DHT22;5557;51.670;7.788;2022-12-20T14:40:16;11.30;99.90
11009;DHT22;5557;51.670;7.788;2022-12-20T14:42:44;11.20;99.90
11009;DHT22;5557;51.670;7.788;2022-12-20T14:45:26;11.10;99.90
11009;DHT22;5557;51.670;7.788;2022-12-20T14:48:05;11.10;99.90
11009;DHT22;5557;51.670;7.788;2022-12-20T14:54:21;11.00;99.90
11009;DHT22;5557;51.670;7.788;2022-12-20T15:00:37;10.80;99.90
11009;DHT22;5557;51.670;7.788;2022-12-20T15:03:16;10.70;99.90
11009;DHT22;5557;51.670;7.788;2022-12-20T15:05:53;10.70;99.90
11009;DHT22;5557;51.670;7.788;2022-12-20T15:08:26;10.60;99.90
11009;DHT22;5557;51.670;7.788;2022-12-20T15:11:20;10.60;99.90
11009;DHT22;5557;51.670;7.788;2022-12-20T15:13:52;10.60;99.90
11009;DHT22;5557;51.670;7.788;2022-12-20T15:16:25;10.50;99.90
11009;DHT22;5557;51.670;7.788;2022-12-20T15:18:54;10.50;99.90
11009;DHT22;5557;51.670;7.788;2022-12-20T15:21:35;10.50;99.90
11009;DHT22;5557;51.670;7.788;2022-12-20T15:24:07;10.50;99.90
11009;DHT22;5557;51.670;7.788;2022-12-20T15:26:35;10.50;99.90
11009;DHT22;5557;51.670;7.788;2022-12-20T15:29:05;10.40;99.90
11009;DHT22;5557;51.670;7.788;2022-12-20T15:31:34;10.40;99.90
11009;DHT22;5557;51.670;7.788;2022-12-20T15:34:13;10.40;99.90
11009;DHT22;5557;51.670;7.788;2022-12-20T15:36:41;10.40;99.90
11009;DHT22;5557;51.670;7.788;2022-12-20T15:39:09;10.30;99.90
11009;DHT22;5557;51.670;7.788;2022-12-20T15:41:42;10.30;99.90
11009;DHT22;5557;51.670;7.788;2022-12-20T15:44:14;10.30;99.90
11009;DHT22;5557;51.670;7.788;2022-12-20T15:46:44;10.30;99.90
11009;DHT22;5557;51.670;7.788;2022-12-20T15:49:16;10.20;99.90
11009;DHT22;5557;51.670;7.788;2022-12-20T15:51:44;10.20;99.90
11009;DHT22;5557;51.670;7.788;2022-12-20T15:54:33;10.30;99.90
11009;DHT22;5557;51.670;7.788;2022-12-20T15:57:04;10.20;99.90
11009;DHT22;5557;51.670;7.788;2022-12-20T15:59:33;10.20;99.90
11009;DHT22;5557;51.670;7.788;2022-12-20T16:04:49;10.20;99.90
11009;DHT22;5557;51.670;7.788;2022-12-20T16:07:16;10.20;99.90
11009;DHT22;5557;51.670;7.788;2022-12-20T16:09:43;10.20;99.90
11009;DHT22;5557;51.670;7.788;2022-12-20T16:12:27;10.20;99.90
11009;DHT22;5557;51.670;7.788;2022-12-20T16:15:00;10.20;99.90
11009;DHT22;5557;51.670;7.788;2022-12-20T16:17:27;10.20;99.90
11009;DHT22;5557;51.670;7.788;2022-12-20T16:19:54;10.20;99.90
11009;DHT22;5557;51.670;7.788;2022-12-20T16:22:23;10.20;99.90
11009;DHT22;5557;51.670;7.788;2022-12-20T16:24:54;10.20;99.90
11009;DHT22;5557;51.670;7.788;2022-12-20T16:27:21;10.20;99.90
11009;DHT22;5557;51.670;7.788;2022-12-20T16:29:48;10.10;99.90
11009;DHT22;5557;51.670;7.788;2022-12-20T16:32:18;10.20;99.90
11009;DHT22;5557;51.670;7.788;2022-12-20T16:34:51;10.10;99.90
11009;DHT22;5557;51.670;7.788;2022-12-20T16:37:18;10.10;99.90
11009;DHT22;5557;51.670;7.788;2022-12-20T16:39:45;10.10;99.90
11009;DHT22;5557;51.670;7.788;2022-12-20T16:42:17;10.10;99.90
11009;DHT22;5557;51.670;7.788;2022-12-20T16:44:45;10.10;99.90
11009;DHT22;5557;51.670;7.788;2022-12-20T16:47:16;10.10;99.90
11009;DHT22;5557;51.670;7.788;2022-12-20T16:49:43;10.10;99.90
11009;DHT22;5557;51.670;7.788;2022-12-20T16:52:19;10.10;99.90
11009;DHT22;5557;51.670;7.788;2022-12-20T16:54:48;10.10;99.90
11009;DHT22;5557;51.670;7.788;2022-12-20T16:57:15;10.00;99.90
11009;DHT22;5557;51.670;7.788;2022-12-20T16:59:42;10.00;99.90
11009;DHT22;5557;51.670;7.788;2022-12-20T17:02:31;10.00;99.90
11009;DHT22;5557;51.670;7.788;2022-12-20T17:04:59;9.90;99.90
11009;DHT22;5557;51.670;7.788;2022-12-20T17:07:26;9.90;99.90
11009;DHT22;5557;51.670;7.788;2022-12-20T17:09:53;9.90;99.90
11009;DHT22;5557;51.670;7.788;2022-12-20T17:12:38;9.90;99.90
11009;DHT22;5557;51.670;7.788;2022-12-20T17:15:08;10.00;99.90
11009;DHT22;5557;51.670;7.788;2022-12-20T17:17:38;10.00;99.90
11009;DHT22;5557;51.670;7.788;2022-12-20T17:20:05;10.00;99.90
11009;DHT22;5557;51.670;7.788;2022-12-20T17:22:32;10.00;99.90
11009;DHT22;5557;51.670;7.788;2022-12-20T17:25:29;10.00;99.90
11009;DHT22;5557;51.670;7.788;2022-12-20T17:27:56;10.00;99.90
11009;DHT22;5557;51.670;7.788;2022-12-20T17:30:24;10.00;99.90
11009;DHT22;5557;51.670;7.788;2022-12-20T17:32:52;10.00;99.90
11009;DHT22;5557;51.670;7.788;2022-12-20T17:35:24;9.90;99.90
11009;DHT22;5557;51.670;7.788;2022-12-20T17:37:51;9.90;99.90
11009;DHT22;5557;51.670;7.788;2022-12-20T17:40:25;9.90;99.90
11009;DHT22;5557;51.670;7.788;2022-12-20T17:42:53;10.00;99.90
11009;DHT22;5557;51.670;7.788;2022-12-20T17:45:31;10.00;99.90
11009;DHT22;5557;51.670;7.788;2022-12-20T17:48:03;10.00;99.90
11009;DHT22;5557;51.670;7.788;2022-12-20T17:50:30;10.00;99.90
11009;DHT22;5557;51.670;7.788;2022-12-20T17:52:57;10.00;99.90